sensor_id;sensor_type;location;lat;lon;timestamp;temperature;humidity
30206;DHT22;17010;51.306;3.150;2023-04-24T10:13:23;15.50;99.90
30206;DHT22;17010;51.306;3.150;2023-04-24T10:16:43;15.20;99.90
30206;DHT22;17010;51.306;3.150;2023-04-24T11:17:06;13.50;99.90
30206;DHT22;17010;51.306;3.150;2023-04-24T11:23:20;13.20;99.90
30206;DHT22;17010;51.306;3.150;2023-04-24T11:30:04;13.60;99.90
30206;DHT22;17010;51.306;3.150;2023-04-24T11:33:19;13.90;99.90
30206;DHT22;17010;51.306;3.150;2023-04-24T11:36:46;13.60;99.90
30206;DHT22;17010;51.306;3.150;2023-04-24T11:39:38;13.50;99.90
30206;DHT22;17010;51.306;3.150;2023-04-24T11:49:46;13.00;99.90
30206;DHT22;17010;51.306;3.150;2023-04-24T11:52:43;12.80;99.90
30206;DHT22;17010;51.306;3.150;2023-04-24T11:55:43;12.80;99.90
30206;DHT22;17010;51.306;3.150;2023-04-24T12:02:19;13.20;99.90
30206;DHT22;17010;51.306;3.150;2023-04-24T12:05:42;14.00;99.90
30206;DHT22;17010;51.306;3.150;2023-04-24T12:11:57;14.10;99.90
30206;DHT22;17010;51.306;3.150;2023-04-24T12:15:30;13.50;99.90
30206;DHT22;17010;51.306;3.150;2023-04-24T12:18:21;13.90;99.90
30206;DHT22;17010;51.306;3.150;2023-04-24T12:22:03;13.90;99.90
30206;DHT22;17010;51.306;3.150;2023-04-24T12:25:28;14.00;99.90
30206;DHT22;17010;51.306;3.150;2023-04-24T12:28:38;13.70;99.90
30206;DHT22;17010;51.306;3.150;2023-04-24T12:31:49;13.80;99.90
30206;DHT22;17010;51.306;3.150;2023-04-24T12:34:45;13.60;99.90
30206;DHT22;17010;51.306;3.150;2023-04-24T12:41:27;14.00;99.90
30206;DHT22;17010;51.306;3.150;2023-04-24T12:44:10;13.90;99.90
30206;DHT22;17010;51.306;3.150;2023-04-24T12:50:23;14.40;99.90
30206;DHT22;17010;51.306;3.150;2023-04-24T12:54:00;15.00;99.90
30206;DHT22;17010;51.306;3.150;2023-04-24T12:57:06;14.80;99.90
30206;DHT22;17010;51.306;3.150;2023-04-24T12:59:58;15.30;99.90
30206;DHT22;17010;51.306;3.150;2023-04-24T13:06:40;15.20;99.90
30206;DHT22;17010;51.306;3.150;2023-04-24T13:09:50;15.10;99.90
30206;DHT22;17010;51.306;3.150;2023-04-24T13:25:53;14.20;99.90
30206;DHT22;17010;51.306;3.150;2023-04-24T13:32:28;14.40;99.90
30206;DHT22;17010;51.306;3.150;2023-04-24T13:36:10;14.40;99.90
30206;DHT22;17010;51.306;3.150;2023-04-24T13:39:22;15.00;99.90
30206;DHT22;17010;51.306;3.150;2023-04-24T13:42:03;15.60;99.90
30206;DHT22;17010;51.306;3.150;2023-04-24T13:48:51;15.10;99.90
30206;DHT22;17010;51.306;3.150;2023-04-24T13:52:30;15.10;99.90
30206;DHT22;17010;51.306;3.150;2023-04-24T13:55:59;14.50;99.90
30206;DHT22;17010;51.306;3.150;2023-04-24T13:59:05;14.10;99.90
30206;DHT22;17010;51.306;3.150;2023-04-24T14:01:35;13.60;99.90
30206;DHT22;17010;51.306;3.150;2023-04-24T14:04:27;13.70;99.90
30206;DHT22;17010;51.306;3.150;2023-04-24T14:07:29;13.60;99.90
30206;DHT22;17010;51.306;3.150;2023-04-24T14:23:30;12.90;99.90
30206;DHT22;17010;51.306;3.150;2023-04-24T14:26:09;12.90;99.90
30206;DHT22;17010;51.306;3.150;2023-04-24T14:29:05;12.80;99.90
30206;DHT22;17010;51.306;3.150;2023-04-24T15:21:39;12.30;99.90
30206;DHT22;17010;51.306;3.150;2023-04-24T15:24:34;12.40;99.90
30206;DHT22;17010;51.306;3.150;2023-04-24T15:27:44;12.30;99.90
30206;DHT22;17010;51.306;3.150;2023-04-24T17:05:14;11.60;99.90
30206;DHT22;17010;51.306;3.150;2023-04-24T17:07:48;11.50;99.90
30206;DHT22;17010;51.306;3.150;2023-04-24T17:10:23;11.30;99.90
30206;DHT22;17010;51.306;3.150;2023-04-24T17:13:17;11.40;99.90
30206;DHT22;17010;51.306;3.150;2023-04-24T17:16:37;11.50;99.90
30206;DHT22;17010;51.306;3.150;2023-04-24T17:26:51;11.20;99.90
30206;DHT22;17010;51.306;3.150;2023-04-24T17:30:15;10.90;99.90
30206;DHT22;17010;51.306;3.150;2023-04-24T17:53:58;9.60;99.90
30206;DHT22;17010;51.306;3.150;2023-04-24T17:57:14;9.80;99.90
30206;DHT22;17010;51.306;3.150;2023-04-24T18:00:44;9.60;99.90
30206;DHT22;17010;51.306;3.150;2023-04-24T19:08:55;9.40;99.90
30206;DHT22;17010;51.306;3.150;2023-04-24T19:12:10;9.30;99.90
30206;DHT22;17010;51.306;3.150;2023-04-24T19:15:04;9.20;99.90
30206;DHT22;17010;51.306;3.150;2023-04-24T19:17:51;9.20;99.90
30206;DHT22;17010;51.306;3.150;2023-04-24T19:20:55;9.20;99.90
30206;DHT22;17010;51.306;3.150;2023-04-24T19:23:25;9.20;99.90
30206;DHT22;17010;51.306;3.150;2023-04-24T19:26:16;9.20;99.90
30206;DHT22;17010;51.306;3.150;2023-04-24T19:29:10;9.20;99.90
30206;DHT22;17010;51.306;3.150;2023-04-24T19:32:21;9.10;99.90
30206;DHT22;17010;51.306;3.150;2023-04-24T23:45:52;8.10;99.90
30206;DHT22;17010;51.306;3.150;2023-04-24T23:48:52;8.10;99.90
30206;DHT22;17010;51.306;3.150;2023-04-24T23:52:23;8.00;99.90
30206;DHT22;17010;51.306;3.150;2023-04-24T23:55:24;8.00;99.90
30206;DHT22;17010;51.306;3.150;2023-04-24T23:58:29;8.10;99.90
